createdAt,value
2023-04-06T00:00:50.636Z,1.74
2023-04-06T00:03:17.889Z,1.28
2023-04-06T00:05:44.628Z,1.41
2023-04-06T00:08:11.582Z,1.76
2023-04-06T00:10:38.176Z,1.81
2023-04-06T00:13:04.995Z,1.82
2023-04-06T00:15:31.720Z,1.46
2023-04-06T00:21:54.263Z,1.76
2023-04-06T00:24:21.062Z,1.73
2023-04-06T00:26:47.678Z,1.80
2023-04-06T00:29:14.430Z,1.78
2023-04-06T00:31:41.133Z,1.35
2023-04-06T00:34:07.830Z,1.85
2023-04-06T00:36:34.539Z,1.79
2023-04-06T00:39:01.454Z,1.78
2023-04-06T00:41:28.218Z,1.77
2023-04-06T00:43:55.750Z,1.90
2023-04-06T00:46:22.438Z,1.75
2023-04-06T00:48:49.121Z,1.29
2023-04-06T00:51:15.883Z,1.61
2023-04-06T00:53:42.583Z,1.26
2023-04-06T00:56:10.976Z,1.70
2023-04-06T00:58:48.513Z,1.15
2023-04-06T01:01:15.385Z,1.49
2023-04-06T01:03:43.324Z,1.70
2023-04-06T01:06:12.626Z,1.50
2023-04-06T01:08:41.162Z,1.54
2023-04-06T01:11:18.823Z,1.04
2023-04-06T01:13:47.249Z,1.29
2023-04-06T01:16:22.254Z,1.57
2023-04-06T01:19:02.796Z,1.58
2023-04-06T01:21:32.464Z,0.89
2023-04-06T01:24:22.869Z,1.39
2023-04-06T01:27:01.800Z,0.63
2023-04-06T01:29:35.733Z,0.82
2023-04-06T01:32:05.568Z,1.44
2023-04-06T01:34:37.623Z,0.91
2023-04-06T01:37:06.138Z,1.39
2023-04-06T01:39:32.957Z,1.40
2023-04-06T01:42:02.221Z,1.26
2023-04-06T01:44:31.521Z,1.36
2023-04-06T01:47:07.419Z,1.60
2023-04-06T01:49:34.772Z,1.65
2023-04-06T01:52:01.717Z,1.57
2023-04-06T01:54:28.627Z,1.60
2023-04-06T01:57:13.892Z,1.50
2023-04-06T01:59:47.901Z,1.45
2023-04-06T02:02:40.327Z,1.69
2023-04-06T02:05:13.370Z,1.49
2023-04-06T02:07:41.118Z,1.48
2023-04-06T02:10:16.250Z,1.71
2023-04-06T02:12:44.575Z,1.74
2023-04-06T02:15:16.331Z,1.85
2023-04-06T02:17:43.707Z,2.02
2023-04-06T02:20:10.700Z,1.99
2023-04-06T02:22:37.346Z,1.97
2023-04-06T02:25:04.265Z,1.58
2023-04-06T02:27:31.098Z,2.25
2023-04-06T02:29:58.639Z,2.26
2023-04-06T02:32:25.645Z,1.90
2023-04-06T02:34:53.249Z,2.42
2023-04-06T02:37:21.597Z,2.50
2023-04-06T02:39:48.307Z,2.70
2023-04-06T02:42:16.333Z,2.39
2023-04-06T02:44:44.698Z,2.22
2023-04-06T02:47:11.872Z,2.81
2023-04-06T02:49:41.173Z,2.44
2023-04-06T02:52:08.216Z,2.74
2023-04-06T02:54:36.412Z,2.92
2023-04-06T02:57:04.166Z,2.88
2023-04-06T02:59:37.955Z,2.99
2023-04-06T03:02:27.483Z,2.69
2023-04-06T03:05:04.352Z,2.67
2023-04-06T03:07:35.734Z,3.09
2023-04-06T03:10:02.465Z,3.11
2023-04-06T03:12:31.507Z,2.76
2023-04-06T03:15:16.524Z,2.84
2023-04-06T03:17:48.295Z,3.33
2023-04-06T03:20:30.560Z,3.31
2023-04-06T03:22:57.326Z,2.66
2023-04-06T03:25:27.911Z,3.56
2023-04-06T03:27:59.321Z,3.57
2023-04-06T03:30:27.533Z,3.07
2023-04-06T03:32:54.271Z,3.39
2023-04-06T03:35:23.278Z,3.11
2023-04-06T03:37:50.631Z,3.63
2023-04-06T03:40:17.582Z,3.73
2023-04-06T03:42:44.284Z,3.76
2023-04-06T03:45:14.957Z,3.59
2023-04-06T03:47:47.126Z,3.81
2023-04-06T03:50:14.405Z,3.85
2023-04-06T03:52:41.312Z,3.70
2023-04-06T03:55:08.748Z,3.88
2023-04-06T03:57:36.799Z,3.28
2023-04-06T04:00:03.809Z,3.80
2023-04-06T04:02:39.536Z,3.78
2023-04-06T04:05:06.771Z,3.41
2023-04-06T04:07:33.334Z,3.55
2023-04-06T04:10:00.693Z,3.79
2023-04-06T04:12:27.794Z,3.45
2023-04-06T04:14:54.444Z,3.55
2023-04-06T04:17:23.075Z,4.13
2023-04-06T04:19:49.741Z,4.02
2023-04-06T04:22:16.834Z,3.99
2023-04-06T04:24:44.211Z,4.02
2023-04-06T04:27:11.021Z,3.71
2023-04-06T04:29:39.018Z,4.08
2023-04-06T04:32:09.013Z,4.10
2023-04-06T04:34:36.504Z,4.05
2023-04-06T04:37:05.544Z,3.72
2023-04-06T04:39:48.051Z,4.24
2023-04-06T04:42:15.340Z,4.11
2023-04-06T04:44:47.229Z,4.20
2023-04-06T04:47:18.214Z,3.98
2023-04-06T04:49:46.789Z,4.03
2023-04-06T04:52:19.012Z,3.47
2023-04-06T04:54:57.253Z,3.97
2023-04-06T04:57:27.932Z,3.95
2023-04-06T04:59:55.533Z,3.57
2023-04-06T05:02:24.171Z,3.33
2023-04-06T05:05:17.065Z,3.74
2023-04-06T05:07:44.023Z,3.74
2023-04-06T05:10:18.674Z,3.77
2023-04-06T05:12:58.852Z,3.31
2023-04-06T05:15:28.708Z,3.89
2023-04-06T05:18:02.318Z,3.77
2023-04-06T05:20:33.198Z,3.73
2023-04-06T05:23:00.412Z,3.44
2023-04-06T05:25:27.614Z,4.11
2023-04-06T05:27:57.587Z,3.58
2023-04-06T05:30:31.463Z,3.42
2023-04-06T05:32:59.909Z,3.70
2023-04-06T05:35:32.374Z,4.26
2023-04-06T05:38:09.451Z,4.27
2023-04-06T05:40:36.657Z,4.47
2023-04-06T05:43:03.444Z,4.49
2023-04-06T05:45:31.157Z,4.38
2023-04-06T05:47:58.782Z,4.34
2023-04-06T05:50:29.679Z,4.22
2023-04-06T05:52:57.468Z,4.06
2023-04-06T05:55:29.332Z,4.67
2023-04-06T05:58:08.232Z,4.69
2023-04-06T06:00:35.413Z,4.70
2023-04-06T06:03:06.975Z,4.84
2023-04-06T06:05:35.810Z,4.60
2023-04-06T06:08:11.197Z,5.04
2023-04-06T06:10:39.401Z,4.80
2023-04-06T06:13:09.186Z,5.38
2023-04-06T06:15:36.144Z,5.59
2023-04-06T06:18:03.144Z,5.92
2023-04-06T06:20:30.743Z,5.52
2023-04-06T06:23:01.588Z,6.15
2023-04-06T06:25:28.287Z,6.09
2023-04-06T06:27:55.251Z,6.36
2023-04-06T06:30:23.450Z,6.37
2023-04-06T06:32:51.645Z,6.66
2023-04-06T06:35:19.544Z,6.89
2023-04-06T06:37:48.012Z,6.31
2023-04-06T06:40:19.002Z,7.29
2023-04-06T06:42:47.631Z,7.30
2023-04-06T06:45:34.589Z,7.42
2023-04-06T06:48:01.359Z,7.20
2023-04-06T06:50:28.533Z,7.31
2023-04-06T06:52:55.658Z,7.86
2023-04-06T06:55:22.353Z,7.87
2023-04-06T06:57:49.724Z,7.46
2023-04-06T07:00:16.709Z,7.45
2023-04-06T07:02:46.065Z,7.80
2023-04-06T07:05:26.235Z,7.81
2023-04-06T07:07:56.410Z,7.93
2023-04-06T07:10:23.269Z,7.92
2023-04-06T07:12:50.108Z,8.04
2023-04-06T07:15:18.442Z,7.75
2023-04-06T07:17:48.257Z,8.28
2023-04-06T07:20:15.666Z,8.41
2023-04-06T07:22:44.522Z,8.50
2023-04-06T07:25:11.403Z,8.34
2023-04-06T07:27:38.071Z,8.69
2023-04-06T07:30:05.522Z,9.29
2023-04-06T07:32:32.362Z,9.12
2023-04-06T07:34:59.379Z,9.74
2023-04-06T07:37:26.175Z,10.01
2023-04-06T07:39:53.240Z,10.05
2023-04-06T07:42:19.966Z,9.74
2023-04-06T07:44:46.893Z,10.34
2023-04-06T07:47:13.550Z,10.35
2023-04-06T07:49:40.284Z,10.16
2023-04-06T07:52:07.139Z,10.48
2023-04-06T07:54:34.073Z,10.61
2023-04-06T07:57:00.884Z,10.25
2023-04-06T07:59:27.575Z,10.44
2023-04-06T08:01:54.287Z,10.13
2023-04-06T08:04:21.510Z,10.33
2023-04-06T08:06:48.182Z,9.75
2023-04-06T08:09:14.852Z,9.69
2023-04-06T08:14:44.387Z,10.23
2023-04-06T08:17:11.369Z,10.38
2023-04-06T08:19:38.632Z,10.47
2023-04-06T08:22:06.724Z,10.43
2023-04-06T08:24:33.462Z,10.57
2023-04-06T08:27:00.201Z,10.40
2023-04-06T08:29:26.862Z,10.84
2023-04-06T08:31:53.496Z,10.76
2023-04-06T08:34:20.181Z,11.02
2023-04-06T08:36:47.738Z,10.78
2023-04-06T08:39:14.438Z,11.23
2023-04-06T08:41:45.012Z,11.29
2023-04-06T08:44:12.546Z,11.51
2023-04-06T08:46:39.232Z,11.18
2023-04-06T08:49:07.845Z,11.51
2023-04-06T08:51:38.328Z,10.97
2023-04-06T08:54:06.156Z,11.44
2023-04-06T08:56:32.951Z,11.40
2023-04-06T08:59:00.125Z,11.64
2023-04-06T09:01:28.445Z,11.63
2023-04-06T09:04:00.197Z,11.48
2023-04-06T09:06:31.879Z,11.97
2023-04-06T09:08:59.048Z,12.95
2023-04-06T09:11:26.120Z,13.53
2023-04-06T09:13:55.213Z,14.02
2023-04-06T09:16:22.830Z,13.92
2023-04-06T09:18:50.622Z,14.02
2023-04-06T09:21:19.383Z,14.64
2023-04-06T09:23:46.288Z,14.77
2023-04-06T09:26:18.024Z,15.36
2023-04-06T09:28:48.673Z,15.53
2023-04-06T09:31:17.079Z,15.49
2023-04-06T09:33:46.154Z,15.48
2023-04-06T09:36:13.181Z,15.05
2023-04-06T09:38:51.762Z,14.85
2023-04-06T09:41:29.049Z,14.48
2023-04-06T09:44:06.222Z,14.83
2023-04-06T09:46:58.891Z,14.95
2023-04-06T09:49:31.956Z,14.95
2023-04-06T09:52:01.237Z,15.01
2023-04-06T09:54:30.489Z,14.97
2023-04-06T09:57:04.503Z,14.67
2023-04-06T09:59:38.909Z,14.62
2023-04-06T10:02:09.397Z,14.43
2023-04-06T10:04:57.688Z,14.55
2023-04-06T10:07:24.576Z,14.20
2023-04-06T10:09:53.254Z,14.70
2023-04-06T10:12:20.431Z,14.69
2023-04-06T10:14:47.652Z,14.69
2023-04-06T10:17:14.192Z,14.70
2023-04-06T10:20:04.990Z,14.81
2023-04-06T10:22:46.756Z,14.76
2023-04-06T10:25:13.581Z,14.74
2023-04-06T10:27:40.275Z,15.04
2023-04-06T10:30:07.862Z,15.21
2023-04-06T10:32:36.783Z,15.50
2023-04-06T10:35:11.102Z,15.49
2023-04-06T10:38:02.167Z,15.54
2023-04-06T10:40:34.721Z,15.55
2023-04-06T10:43:11.348Z,15.93
2023-04-06T10:45:41.123Z,16.09
2023-04-06T10:48:15.976Z,15.69
2023-04-06T10:50:49.619Z,15.83
2023-04-06T10:53:27.207Z,15.46
2023-04-06T10:55:57.846Z,15.98
2023-04-06T10:58:28.563Z,15.90
2023-04-06T11:00:56.678Z,15.85
2023-04-06T11:03:24.079Z,15.90
2023-04-06T11:05:52.292Z,15.99
2023-04-06T11:08:32.427Z,15.84
2023-04-06T11:11:27.509Z,15.81
2023-04-06T11:13:56.089Z,15.54
2023-04-06T11:16:31.490Z,15.51
2023-04-06T11:19:09.567Z,14.43
2023-04-06T11:21:37.819Z,15.04
2023-04-06T11:24:12.018Z,15.09
2023-04-06T11:26:42.873Z,15.15
2023-04-06T11:29:09.985Z,14.55
2023-04-06T11:31:45.590Z,14.22
2023-04-06T11:34:24.741Z,14.22
2023-04-06T11:37:17.872Z,13.95
2023-04-06T11:39:53.324Z,13.84
2023-04-06T11:42:28.823Z,13.23
2023-04-06T11:44:59.642Z,13.29
2023-04-06T11:47:38.587Z,13.15
2023-04-06T11:50:10.754Z,12.94
2023-04-06T11:52:39.004Z,12.57
2023-04-06T11:55:37.992Z,11.99
2023-04-06T11:58:04.914Z,11.49
2023-04-06T12:00:35.455Z,11.33
2023-04-06T12:03:03.518Z,11.09
2023-04-06T12:05:33.245Z,10.69
2023-04-06T12:08:03.791Z,10.54
2023-04-06T12:10:31.106Z,10.99
2023-04-06T12:12:57.849Z,11.03
2023-04-06T12:15:24.634Z,11.02
2023-04-06T12:17:51.369Z,10.84
2023-04-06T12:20:26.387Z,10.93
2023-04-06T12:22:54.303Z,10.94
2023-04-06T12:25:21.425Z,10.93
2023-04-06T12:27:48.365Z,10.81
2023-04-06T12:30:15.946Z,10.73
2023-04-06T12:32:42.625Z,10.57
2023-04-06T12:35:10.617Z,10.33
2023-04-06T12:37:37.820Z,10.24
2023-04-06T12:40:05.245Z,10.15
2023-04-06T12:42:32.187Z,10.21
2023-04-06T12:44:58.896Z,10.05
2023-04-06T12:47:27.410Z,9.68
2023-04-06T12:49:55.918Z,9.95
2023-04-06T12:52:22.622Z,9.83
2023-04-06T12:54:51.162Z,9.94
2023-04-06T12:57:18.244Z,9.85
2023-04-06T12:59:45.629Z,10.04
2023-04-06T13:02:12.982Z,9.76
2023-04-06T13:04:39.994Z,9.71
2023-04-06T13:07:07.046Z,9.62
2023-04-06T13:09:33.800Z,9.44
2023-04-06T13:12:00.543Z,9.56
2023-04-06T13:14:27.303Z,9.30
2023-04-06T13:16:54.158Z,9.26
2023-04-06T13:19:20.991Z,9.39
2023-04-06T13:21:47.863Z,9.25
2023-04-06T13:24:16.435Z,8.90
2023-04-06T13:26:44.257Z,9.25
2023-04-06T13:29:10.926Z,9.25
2023-04-06T13:31:37.746Z,8.95
2023-04-06T13:34:04.462Z,8.89
2023-04-06T13:36:32.613Z,9.24
2023-04-06T13:38:59.788Z,9.16
2023-04-06T13:41:27.360Z,9.30
2023-04-06T13:43:54.019Z,8.87
2023-04-06T13:46:21.802Z,9.09
2023-04-06T13:48:48.961Z,9.07
2023-04-06T13:51:16.311Z,8.85
2023-04-06T13:53:43.165Z,9.04
2023-04-06T13:56:10.324Z,8.96
2023-04-06T13:58:37.228Z,8.69
2023-04-06T14:01:08.735Z,9.04
2023-04-06T14:03:36.628Z,8.84
2023-04-06T14:06:20.868Z,9.33
2023-04-06T14:08:57.869Z,8.98
2023-04-06T14:11:24.517Z,9.32
2023-04-06T14:13:51.159Z,9.33
2023-04-06T14:16:20.495Z,9.52
2023-04-06T14:18:47.414Z,9.51
2023-04-06T14:21:13.960Z,9.61
2023-04-06T14:23:40.952Z,9.42
2023-04-06T14:26:09.331Z,9.41
2023-04-06T14:28:36.986Z,9.40
2023-04-06T14:31:11.540Z,9.23
2023-04-06T14:33:38.112Z,8.73
2023-04-06T14:36:05.911Z,8.22
2023-04-06T14:38:33.314Z,8.98
2023-04-06T14:40:59.982Z,8.89
2023-04-06T14:43:27.057Z,8.80
2023-04-06T14:45:54.108Z,8.92
2023-04-06T14:48:20.891Z,8.45
2023-04-06T14:50:54.513Z,8.80
2023-04-06T14:53:21.557Z,8.76
2023-04-06T14:55:48.378Z,8.71
2023-04-06T14:58:15.342Z,8.60
2023-04-06T15:00:42.266Z,8.66
2023-04-06T15:03:09.422Z,8.39
2023-04-06T15:05:36.484Z,8.62
2023-04-06T15:08:03.303Z,8.64
2023-04-06T15:10:32.920Z,8.73
2023-04-06T15:13:00.372Z,8.68
2023-04-06T15:15:39.643Z,8.61
2023-04-06T15:18:10.462Z,8.66
2023-04-06T15:20:37.721Z,8.58
2023-04-06T15:23:05.246Z,8.52
2023-04-06T15:25:32.094Z,8.70
2023-04-06T15:28:00.333Z,8.67
2023-04-06T15:30:28.346Z,8.48
2023-04-06T15:33:02.362Z,8.67
2023-04-06T15:35:30.091Z,8.55
2023-04-06T15:37:57.888Z,8.10
2023-04-06T15:40:25.472Z,8.71
2023-04-06T15:42:52.421Z,8.66
2023-04-06T15:45:19.258Z,8.66
2023-04-06T15:47:46.526Z,8.60
2023-04-06T15:50:14.230Z,8.61
2023-04-06T15:52:41.308Z,8.62
2023-04-06T15:55:09.270Z,8.69
2023-04-06T15:57:36.117Z,8.67
2023-04-06T16:00:05.023Z,8.48
2023-04-06T16:02:36.240Z,8.57
2023-04-06T16:05:04.179Z,8.39
2023-04-06T16:10:17.285Z,8.48
2023-04-06T16:12:43.943Z,8.44
2023-04-06T16:15:36.366Z,7.98
2023-04-06T16:18:31.424Z,8.84
2023-04-06T16:20:59.645Z,8.74
2023-04-06T16:23:27.208Z,8.74
2023-04-06T16:25:54.928Z,8.60
2023-04-06T16:28:23.224Z,8.65
2023-04-06T16:30:49.888Z,8.66
2023-04-06T16:33:19.139Z,8.47
2023-04-06T16:35:46.865Z,8.56
2023-04-06T16:38:14.433Z,8.70
2023-04-06T16:40:41.095Z,8.59
2023-04-06T16:43:09.905Z,8.60
2023-04-06T16:45:37.862Z,8.69
2023-04-06T16:48:04.741Z,8.39
2023-04-06T16:50:31.468Z,8.43
2023-04-06T16:52:58.534Z,8.45
2023-04-06T16:55:25.399Z,8.58
2023-04-06T16:57:55.834Z,8.21
2023-04-06T17:00:22.849Z,8.63
2023-04-06T17:02:49.732Z,8.43
2023-04-06T17:05:20.654Z,8.60
2023-04-06T17:07:47.491Z,8.27
2023-04-06T17:10:14.136Z,8.29
2023-04-06T17:12:40.847Z,8.42
2023-04-06T17:15:08.224Z,8.59
2023-04-06T17:17:34.923Z,8.61
2023-04-06T17:20:01.663Z,8.45
2023-04-06T17:22:28.307Z,8.58
2023-04-06T17:24:55.290Z,8.39
2023-04-06T17:27:23.567Z,8.26
2023-04-06T17:29:50.596Z,8.54
2023-04-06T17:32:19.457Z,8.53
2023-04-06T17:34:46.116Z,8.17
2023-04-06T17:37:12.781Z,8.44
2023-04-06T17:39:39.420Z,8.48
2023-04-06T17:42:06.188Z,8.48
2023-04-06T17:44:33.422Z,8.36
2023-04-06T17:47:00.378Z,8.60
2023-04-06T17:49:26.965Z,7.96
2023-04-06T17:51:53.582Z,8.22
2023-04-06T17:54:20.151Z,8.13
2023-04-06T17:56:49.082Z,8.59
2023-04-06T17:59:15.670Z,8.47
2023-04-06T18:01:42.431Z,8.65
2023-04-06T18:04:09.272Z,8.07
2023-04-06T18:06:36.921Z,8.43
2023-04-06T18:09:03.833Z,8.55
2023-04-06T18:11:31.681Z,7.81
2023-04-06T18:13:59.546Z,8.39
2023-04-06T18:16:26.511Z,8.46
2023-04-06T18:18:53.172Z,8.47
2023-04-06T18:21:19.797Z,8.37
2023-04-06T18:23:46.601Z,8.30
2023-04-06T18:26:18.483Z,8.39
2023-04-06T18:28:45.719Z,8.46
2023-04-06T18:31:12.393Z,8.37
2023-04-06T18:33:39.182Z,8.60
2023-04-06T18:36:06.221Z,8.50
2023-04-06T18:38:32.854Z,8.51
2023-04-06T18:40:59.502Z,8.50
2023-04-06T18:43:26.239Z,8.59
2023-04-06T18:45:53.871Z,8.54
2023-04-06T18:48:20.544Z,8.45
2023-04-06T18:51:01.881Z,8.43
2023-04-06T18:53:28.907Z,8.47
2023-04-06T18:55:59.360Z,7.60
2023-04-06T18:58:26.626Z,8.58
2023-04-06T19:00:54.241Z,8.62
2023-04-06T19:03:22.150Z,8.47
2023-04-06T19:05:49.400Z,8.70
2023-04-06T19:08:16.356Z,8.63
2023-04-06T19:10:42.938Z,8.62
2023-04-06T19:13:09.662Z,8.75
2023-04-06T19:15:36.373Z,8.71
2023-04-06T19:18:03.362Z,8.23
2023-04-06T19:20:33.999Z,8.65
2023-04-06T19:23:00.957Z,8.66
2023-04-06T19:25:27.608Z,8.58
2023-04-06T19:27:54.478Z,8.73
2023-04-06T19:30:21.249Z,8.22
2023-04-06T19:32:47.911Z,8.56
2023-04-06T19:35:14.583Z,8.73
2023-04-06T19:37:43.397Z,8.75
2023-04-06T19:40:10.661Z,8.69
2023-04-06T19:42:38.795Z,8.79
2023-04-06T19:45:06.546Z,8.34
2023-04-06T19:47:35.217Z,8.75
2023-04-06T19:50:03.743Z,8.78
2023-04-06T19:52:31.419Z,8.71
2023-04-06T19:54:59.277Z,8.74
2023-04-06T19:57:26.242Z,8.79
2023-04-06T19:59:56.350Z,8.43
2023-04-06T20:02:23.040Z,8.77
2023-04-06T20:04:49.831Z,8.78
2023-04-06T20:07:16.540Z,8.76
2023-04-06T20:09:43.203Z,8.74
2023-04-06T20:12:10.313Z,8.32
2023-04-06T20:14:36.969Z,8.82
2023-04-06T20:17:03.685Z,8.95
2023-04-06T20:19:30.379Z,8.81
2023-04-06T20:21:57.781Z,8.82
2023-04-06T20:24:24.521Z,8.79
2023-04-06T20:26:51.176Z,8.98
2023-04-06T20:29:17.848Z,9.03
2023-04-06T20:31:44.433Z,8.89
2023-04-06T20:34:11.100Z,8.90
2023-04-06T20:36:37.977Z,9.05
2023-04-06T20:39:04.631Z,8.86
2023-04-06T20:41:31.166Z,9.03
2023-04-06T20:43:58.172Z,8.98
2023-04-06T20:46:25.232Z,8.95
2023-04-06T20:48:52.893Z,9.04
2023-04-06T20:51:23.047Z,8.76
2023-04-06T20:53:49.657Z,9.05
2023-04-06T20:56:16.201Z,9.16
2023-04-06T20:58:42.854Z,9.27
2023-04-06T21:01:14.956Z,9.23
2023-04-06T21:03:43.061Z,8.95
2023-04-06T21:06:11.292Z,8.91
2023-04-06T21:08:38.115Z,8.66
2023-04-06T21:11:05.117Z,9.36
2023-04-06T21:13:32.462Z,9.25
2023-04-06T21:15:59.667Z,9.38
2023-04-06T21:18:26.484Z,9.30
2023-04-06T21:20:53.151Z,8.69
2023-04-06T21:23:19.826Z,9.40
2023-04-06T21:25:46.497Z,9.42
2023-04-06T21:28:13.098Z,9.42
2023-04-06T21:30:39.911Z,9.38
2023-04-06T21:33:07.490Z,9.38
2023-04-06T21:35:38.456Z,9.57
2023-04-06T21:38:05.011Z,9.57
2023-04-06T21:40:31.574Z,9.67
2023-04-06T21:42:58.123Z,9.65
2023-04-06T21:45:25.113Z,9.72
2023-04-06T21:47:52.864Z,9.65
2023-04-06T21:50:19.496Z,9.67
2023-04-06T21:52:47.143Z,9.73
2023-04-06T21:55:13.840Z,9.74
2023-04-06T21:57:40.597Z,9.83
2023-04-06T22:00:09.878Z,9.91
2023-04-06T22:02:42.166Z,9.61
2023-04-06T22:05:09.431Z,9.84
2023-04-06T22:07:36.138Z,9.88
2023-04-06T22:10:02.874Z,9.98
2023-04-06T22:12:29.465Z,10.01
2023-04-06T22:14:56.073Z,10.01
2023-04-06T22:17:22.787Z,10.19
2023-04-06T22:19:49.509Z,10.07
2023-04-06T22:22:16.301Z,10.06
2023-04-06T22:24:42.952Z,10.14
2023-04-06T22:27:09.630Z,10.01
2023-04-06T22:29:36.315Z,10.30
2023-04-06T22:32:03.052Z,10.25
2023-04-06T22:34:29.712Z,10.04
2023-04-06T22:36:57.146Z,9.75
2023-04-06T22:39:23.792Z,10.05
2023-04-06T22:41:50.483Z,9.77
2023-04-06T22:44:17.201Z,10.00
2023-04-06T22:46:44.049Z,10.10
2023-04-06T22:49:10.739Z,9.62
2023-04-06T22:51:37.243Z,10.01
2023-04-06T22:54:04.876Z,9.99
2023-04-06T22:56:31.477Z,9.41
2023-04-06T22:58:58.071Z,9.59
2023-04-06T23:01:24.725Z,10.04
2023-04-06T23:03:51.523Z,9.99
2023-04-06T23:06:19.142Z,9.51
2023-04-06T23:08:47.002Z,9.88
2023-04-06T23:11:13.935Z,9.94
2023-04-06T23:13:40.596Z,10.04
2023-04-06T23:16:09.175Z,9.57
2023-04-06T23:18:35.774Z,9.84
2023-04-06T23:21:02.849Z,9.91
2023-04-06T23:23:29.463Z,10.01
2023-04-06T23:25:56.280Z,9.95
2023-04-06T23:28:22.990Z,9.77
2023-04-06T23:30:49.659Z,9.99
2023-04-06T23:33:16.344Z,9.84
2023-04-06T23:35:42.995Z,9.78
2023-04-06T23:38:09.652Z,9.92
2023-04-06T23:40:39.423Z,9.49
2023-04-06T23:43:06.253Z,9.81
2023-04-06T23:45:33.105Z,9.76
2023-04-06T23:47:59.830Z,9.68
2023-04-06T23:50:26.525Z,9.68
2023-04-06T23:52:53.148Z,9.58
2023-04-06T23:55:19.778Z,9.51
2023-04-06T23:57:46.309Z,9.60
